Time;durP1;ratioP1;P1;durP2;ratioP2;P2;SDS_P1;SDS_P2;PMS_P1;PMS_P2;Temp;Humidity;BMP_temperature;BMP_pressure;BME280_temperature;BME280_humidity;BME280_pressure;Samples;Min_cycle;Max_cycle;Signal;HPM_P1;HPM_P2
2021/11/23 00:01:57;;;;;;;3.60;1.38;;;3.70;85.30;;;;;;6208313;28;20242;-82
2021/11/23 00:04:59;;;;;;;3.05;1.00;;;3.70;85.70;;;;;;6208874;28;20089;-81
2021/11/23 00:08:03;;;;;;;2.30;1.15;;;3.60;86.40;;;;;;6212479;28;20062;-79
2021/11/23 00:11:05;;;;;;;3.67;1.00;;;3.60;86.50;;;;;;6211678;28;20097;-79
2021/11/23 00:14:07;;;;;;;4.25;1.33;;;3.60;86.70;;;;;;6212507;28;20143;-79
2021/11/23 00:17:08;;;;;;;1.83;1.17;;;3.50;86.70;;;;;;6206017;28;20062;-79
2021/11/23 00:20:11;;;;;;;1.13;0.77;;;3.50;86.40;;;;;;6195858;28;20124;-80
2021/11/23 00:23:15;;;;;;;2.63;1.10;;;3.50;86.50;;;;;;6189244;28;20102;-79
2021/11/23 00:26:17;;;;;;;3.63;1.10;;;3.40;86.60;;;;;;6187212;28;20142;-79
2021/11/23 00:29:19;;;;;;;1.30;0.60;;;3.30;86.30;;;;;;6187402;28;20074;-79
2021/11/23 00:32:22;;;;;;;1.77;1.10;;;3.40;86.60;;;;;;6187314;28;20133;-79
2021/11/23 00:35:24;;;;;;;1.67;1.10;;;3.20;86.80;;;;;;6189352;28;20074;-79
2021/11/23 00:38:27;;;;;;;1.58;0.73;;;3.20;86.50;;;;;;6201400;28;20070;-82
2021/11/23 00:41:29;;;;;;;4.30;1.65;;;3.20;86.60;;;;;;6214288;28;20133;-80
2021/11/23 00:44:31;;;;;;;0.95;0.77;;;3.20;86.70;;;;;;6216831;28;20069;-79
2021/11/23 00:47:33;;;;;;;2.05;0.70;;;3.10;86.80;;;;;;6208287;28;20120;-81
2021/11/23 00:50:35;;;;;;;1.05;0.52;;;3.20;87.50;;;;;;6181719;28;20130;-80
2021/11/23 00:53:39;;;;;;;2.22;0.88;;;3.10;87.10;;;;;;6181397;28;20432;-81
2021/11/23 00:56:41;;;;;;;3.10;1.00;;;3.10;87.30;;;;;;6180797;28;20082;-81
2021/11/23 00:59:43;;;;;;;2.78;0.82;;;3.00;87.10;;;;;;6180424;28;20046;-81
2021/11/23 01:02:45;;;;;;;6.03;1.63;;;3.00;87.40;;;;;;6179913;28;20507;-81
2021/11/23 01:05:47;;;;;;;4.85;2.70;;;3.00;87.60;;;;;;6180317;28;20114;-82
2021/11/23 01:08:51;;;;;;;1.95;1.08;;;2.90;87.60;;;;;;6180877;28;20545;-82
2021/11/23 01:11:53;;;;;;;2.03;0.80;;;2.90;87.50;;;;;;6180454;28;20461;-81
2021/11/23 01:14:55;;;;;;;2.67;0.98;;;2.90;87.70;;;;;;6181043;28;20137;-80
2021/11/23 01:17:57;;;;;;;2.17;1.25;;;2.90;87.70;;;;;;6194364;28;20178;-81
2021/11/23 01:21:00;;;;;;;2.13;1.17;;;2.90;87.20;;;;;;6205444;28;20081;-82
2021/11/23 01:24:03;;;;;;;2.15;1.05;;;2.80;88.00;;;;;;6211278;28;20125;-83
2021/11/23 01:27:06;;;;;;;1.60;0.70;;;2.80;87.40;;;;;;6212841;28;20047;-81
2021/11/23 01:30:11;;;;;;;3.67;1.25;;;2.80;87.50;;;;;;6210742;28;20060;-83
2021/11/23 01:33:13;;;;;;;2.53;1.35;;;2.80;87.90;;;;;;6213553;28;20442;-82
2021/11/23 01:36:14;;;;;;;2.63;1.38;;;2.80;87.70;;;;;;6218415;28;20077;-82
2021/11/23 01:39:18;;;;;;;1.45;0.68;;;2.80;88.00;;;;;;6229444;28;20050;-78
2021/11/23 01:42:19;;;;;;;2.45;1.48;;;2.70;87.70;;;;;;6229819;28;20042;-81
2021/11/23 01:45:21;;;;;;;3.15;1.15;;;2.70;87.80;;;;;;6225627;28;20070;-78
2021/11/23 01:48:23;;;;;;;2.88;1.55;;;2.60;87.80;;;;;;6211510;28;20097;-81
2021/11/23 01:51:25;;;;;;;1.17;0.82;;;2.60;87.80;;;;;;6228081;28;20074;-79
2021/11/23 01:54:28;;;;;;;2.40;1.33;;;2.60;87.80;;;;;;6217510;28;20031;-80
2021/11/23 01:57:30;;;;;;;1.85;0.88;;;2.60;88.00;;;;;;6214164;28;20074;-78
2021/11/23 02:00:33;;;;;;;7.13;1.63;;;2.60;88.20;;;;;;6214074;28;20039;-78
2021/11/23 02:03:36;;;;;;;1.42;0.98;;;2.60;88.50;;;;;;6228561;28;20034;-80
2021/11/23 02:06:38;;;;;;;2.35;1.50;;;2.60;88.50;;;;;;6228980;28;20088;-82
2021/11/23 02:09:41;;;;;;;3.25;1.20;;;2.60;88.90;;;;;;6222371;28;20366;-83
2021/11/23 02:12:43;;;;;;;1.35;1.00;;;2.60;88.80;;;;;;6222766;28;20137;-82
2021/11/23 02:15:45;;;;;;;2.50;1.70;;;2.60;88.70;;;;;;6221795;28;20504;-81
2021/11/23 02:18:47;;;;;;;1.60;1.08;;;2.70;88.80;;;;;;6217491;28;20047;-81
2021/11/23 02:21:50;;;;;;;8.45;1.73;;;2.50;88.40;;;;;;6195962;28;20106;-82
2021/11/23 02:24:52;;;;;;;2.47;1.00;;;2.50;89.10;;;;;;6193889;28;20465;-82
2021/11/23 02:27:54;;;;;;;1.90;1.08;;;2.40;89.00;;;;;;6192981;28;20129;-82
2021/11/23 02:30:58;;;;;;;4.53;1.63;;;2.40;89.00;;;;;;6192572;28;20160;-81
2021/11/23 02:34:00;;;;;;;2.75;1.33;;;2.40;89.60;;;;;;6217213;28;20047;-83
2021/11/23 02:37:04;;;;;;;2.35;0.90;;;2.40;89.20;;;;;;6217158;28;20062;-82
2021/11/23 02:40:08;;;;;;;5.13;1.40;;;2.40;89.50;;;;;;6216928;28;20109;-83
2021/11/23 02:43:10;;;;;;;9.48;1.92;;;2.30;89.40;;;;;;6217125;28;20047;-81
2021/11/23 02:46:12;;;;;;;1.98;0.90;;;2.30;89.60;;;;;;6212658;28;20077;-81
2021/11/23 02:49:14;;;;;;;1.60;1.00;;;2.20;89.80;;;;;;6204211;28;20106;-83
2021/11/23 02:52:17;;;;;;;2.53;1.05;;;2.10;89.60;;;;;;6192844;28;20050;-81
2021/11/23 02:55:21;;;;;;;4.13;2.22;;;2.10;89.70;;;;;;6192136;28;20053;-83
2021/11/23 02:58:23;;;;;;;2.85;1.67;;;2.10;90.30;;;;;;6193703;28;20054;-82
2021/11/23 03:01:27;;;;;;;4.25;2.05;;;2.10;90.00;;;;;;6190385;28;20051;-81
2021/11/23 03:04:29;;;;;;;2.55;1.48;;;2.00;90.20;;;;;;6213164;28;20054;-81
2021/11/23 03:07:32;;;;;;;3.20;1.48;;;2.00;90.20;;;;;;6215157;28;20054;-80
2021/11/23 03:10:34;;;;;;;1.42;0.95;;;2.00;90.40;;;;;;6214165;28;20113;-83
2021/11/23 03:13:35;;;;;;;5.00;2.17;;;2.00;90.30;;;;;;6213333;28;20114;-83
2021/11/23 03:16:37;;;;;;;2.83;1.58;;;1.90;90.30;;;;;;6207163;28;20055;-83
2021/11/23 03:19:40;;;;;;;5.25;1.63;;;1.90;90.40;;;;;;6195399;28;20085;-82
2021/11/23 03:22:44;;;;;;;8.38;2.20;;;1.80;90.50;;;;;;6204964;28;20070;-83
2021/11/23 03:25:46;;;;;;;4.90;2.65;;;1.80;90.70;;;;;;6190717;28;20122;-82
2021/11/23 03:28:47;;;;;;;4.63;2.20;;;1.80;90.60;;;;;;6188706;28;20119;-80
2021/11/23 03:31:49;;;;;;;2.00;1.52;;;1.80;90.60;;;;;;6189154;28;20086;-79
2021/11/23 03:34:52;;;;;;;9.38;2.45;;;1.80;90.70;;;;;;6189006;28;20142;-81
2021/11/23 03:37:55;;;;;;;2.72;1.38;;;1.80;90.70;;;;;;6189077;28;20140;-82
2021/11/23 03:40:57;;;;;;;4.82;2.47;;;1.70;90.70;;;;;;6189460;28;20134;-82
2021/11/23 03:43:59;;;;;;;4.68;1.85;;;1.70;90.80;;;;;;6190032;28;20134;-82
2021/11/23 03:47:01;;;;;;;3.13;2.22;;;1.70;90.90;;;;;;6201427;28;20518;-83
2021/11/23 03:50:06;;;;;;;4.57;1.42;;;1.80;90.90;;;;;;6206365;28;20054;-83
2021/11/23 03:53:09;;;;;;;4.50;2.63;;;1.70;90.90;;;;;;6211936;28;20050;-81
2021/11/23 03:56:11;;;;;;;3.65;2.10;;;1.70;91.00;;;;;;6202664;28;20077;-79
2021/11/23 03:59:13;;;;;;;3.85;1.88;;;1.70;90.90;;;;;;6196380;28;20489;-82
2021/11/23 04:02:15;;;;;;;6.93;1.60;;;1.70;90.90;;;;;;6197494;28;20415;-82
2021/11/23 04:05:18;;;;;;;3.85;1.80;;;1.70;91.10;;;;;;6210466;28;20050;-82
2021/11/23 04:08:22;;;;;;;4.18;1.48;;;1.60;91.00;;;;;;6213356;28;20125;-83
2021/11/23 04:11:24;;;;;;;3.53;1.50;;;1.60;91.00;;;;;;6211947;28;20092;-84
2021/11/23 04:14:26;;;;;;;1.15;0.88;;;1.70;91.10;;;;;;6211562;28;20110;-83
2021/11/23 04:17:27;;;;;;;4.93;2.05;;;1.60;91.00;;;;;;6202797;28;20062;-83
2021/11/23 04:20:29;;;;;;;3.70;2.45;;;1.60;91.20;;;;;;6188887;28;20094;-81
2021/11/23 04:23:32;;;;;;;6.20;2.72;;;1.60;91.20;;;;;;6186889;28;20493;-82
2021/11/23 04:26:34;;;;;;;4.22;2.33;;;1.50;91.10;;;;;;6188192;28;20141;-82
2021/11/23 04:29:36;;;;;;;6.18;2.28;;;1.50;91.10;;;;;;6198318;28;20480;-83
2021/11/23 04:32:39;;;;;;;5.72;2.50;;;1.50;91.20;;;;;;6210840;28;20104;-82
2021/11/23 04:35:41;;;;;;;4.05;1.63;;;1.50;91.30;;;;;;6211001;28;20294;-83
2021/11/23 04:38:44;;;;;;;8.30;2.38;;;1.50;91.30;;;;;;6209724;28;20492;-82
2021/11/23 04:41:46;;;;;;;3.88;1.85;;;1.50;91.30;;;;;;6209826;28;20760;-84
2021/11/23 04:44:48;;;;;;;4.28;1.88;;;1.50;91.30;;;;;;6210240;28;20090;-83
2021/11/23 04:47:49;;;;;;;5.70;2.85;;;1.50;91.60;;;;;;6197401;28;20110;-83
2021/11/23 04:50:51;;;;;;;3.67;2.30;;;1.50;91.40;;;;;;6208572;28;20141;-83
2021/11/23 04:53:55;;;;;;;3.45;1.95;;;1.40;91.40;;;;;;6210390;28;20416;-83
2021/11/23 04:56:56;;;;;;;4.78;2.22;;;1.40;91.40;;;;;;6210437;28;20061;-81
2021/11/23 05:00:00;;;;;;;4.22;2.55;;;1.40;91.50;;;;;;6210364;28;20068;-83
2021/11/23 05:03:01;;;;;;;4.00;2.63;;;1.40;91.50;;;;;;6206441;28;20074;-82
2021/11/23 05:06:03;;;;;;;4.50;2.20;;;1.40;91.50;;;;;;6209532;28;20116;-80
2021/11/23 05:09:07;;;;;;;4.85;2.55;;;1.40;91.50;;;;;;6210736;28;20046;-82
2021/11/23 05:12:09;;;;;;;6.82;2.83;;;1.30;91.50;;;;;;6216116;28;20077;-83
2021/11/23 05:15:11;;;;;;;5.40;3.00;;;1.30;91.50;;;;;;6212343;28;20125;-81
2021/11/23 05:18:13;;;;;;;6.57;2.58;;;1.30;91.50;;;;;;6203281;28;20133;-83
2021/11/23 05:21:14;;;;;;;14.27;2.67;;;1.30;91.40;;;;;;6192648;28;20067;-83
2021/11/23 05:24:18;;;;;;;4.00;1.85;;;1.30;91.60;;;;;;6192479;28;20070;-84
2021/11/23 05:27:19;;;;;;;5.13;2.88;;;1.30;91.50;;;;;;6191842;28;20106;-81
2021/11/23 05:30:21;;;;;;;9.02;3.25;;;1.20;91.50;;;;;;6201574;28;20081;-83
2021/11/23 05:33:23;;;;;;;6.25;2.63;;;1.20;91.50;;;;;;6189825;28;20051;-84
2021/11/23 05:36:25;;;;;;;7.05;3.25;;;1.20;91.70;;;;;;6190120;28;20137;-82
2021/11/23 05:39:28;;;;;;;5.15;3.53;;;1.20;91.70;;;;;;6189284;28;20047;-83
2021/11/23 05:42:30;;;;;;;5.47;3.05;;;1.20;91.90;;;;;;6190244;28;20077;-82
2021/11/23 05:45:32;;;;;;;3.88;1.92;;;1.30;91.60;;;;;;6194566;28;20054;-80
2021/11/23 05:48:34;;;;;;;5.35;3.03;;;1.30;91.70;;;;;;6184746;28;20073;-80
2021/11/23 05:51:36;;;;;;;7.35;2.90;;;1.30;91.50;;;;;;6217981;28;20070;-83
2021/11/23 05:54:39;;;;;;;6.20;2.85;;;1.30;91.70;;;;;;6216804;28;20500;-84
2021/11/23 05:57:41;;;;;;;3.40;1.85;;;1.30;91.60;;;;;;6216697;28;20467;-83
2021/11/23 06:00:42;;;;;;;8.82;2.90;;;1.30;91.60;;;;;;6215057;28;20114;-82
2021/11/23 06:03:44;;;;;;;4.15;2.55;;;1.30;91.60;;;;;;6214225;28;20049;-82
2021/11/23 06:06:46;;;;;;;5.38;3.00;;;1.30;91.50;;;;;;6211051;28;20081;-82
2021/11/23 06:09:49;;;;;;;6.00;2.60;;;1.30;91.50;;;;;;6215525;28;20078;-82
2021/11/23 06:12:51;;;;;;;5.43;3.05;;;1.20;91.50;;;;;;6216512;28;20118;-80
2021/11/23 06:15:54;;;;;;;6.72;3.58;;;1.20;91.50;;;;;;6213656;28;20074;-80
2021/11/23 06:18:56;;;;;;;7.88;3.17;;;1.20;91.60;;;;;;6207818;28;20096;-79
2021/11/23 06:21:58;;;;;;;9.15;4.30;;;1.30;91.60;;;;;;6218470;28;20050;-79
2021/11/23 06:25:01;;;;;;;9.25;3.95;;;1.30;91.60;;;;;;6216231;28;20069;-79
2021/11/23 06:28:04;;;;;;;6.88;3.35;;;1.30;91.60;;;;;;6214582;28;20104;-81
2021/11/23 06:31:06;;;;;;;6.68;4.35;;;1.40;91.70;;;;;;6216529;28;20104;-79
2021/11/23 06:34:09;;;;;;;7.50;3.83;;;1.40;91.40;;;;;;6217746;28;20083;-81
2021/11/23 06:37:11;;;;;;;6.72;3.75;;;1.40;91.40;;;;;;6212084;28;20543;-83
2021/11/23 06:40:14;;;;;;;4.78;2.30;;;1.50;91.40;;;;;;6215005;28;20114;-80
2021/11/23 06:43:16;;;;;;;7.85;3.35;;;1.50;91.30;;;;;;6214532;28;20060;-79
2021/11/23 06:46:18;;;;;;;9.80;4.80;;;1.50;91.50;;;;;;6210839;28;20110;-84
2021/11/23 06:49:20;;;;;;;16.00;6.57;;;1.50;91.40;;;;;;6194227;28;20070;-81
2021/11/23 06:52:23;;;;;;;24.70;9.45;;;1.50;91.50;;;;;;6188660;28;20118;-81
2021/11/23 06:55:27;;;;;;;7.05;3.47;;;1.50;91.30;;;;;;6189818;28;20134;-80
2021/11/23 06:58:28;;;;;;;13.10;5.45;;;1.50;91.20;;;;;;6188004;28;20453;-81
2021/11/23 07:01:31;;;;;;;12.88;6.00;;;1.50;91.20;;;;;;6191578;28;20504;-79
2021/11/23 07:04:33;;;;;;;6.55;3.22;;;1.50;91.20;;;;;;6189279;28;20047;-81
2021/11/23 07:07:34;;;;;;;7.03;4.85;;;1.50;91.20;;;;;;6206418;28;20089;-81
2021/11/23 07:10:38;;;;;;;8.32;5.43;;;1.50;91.40;;;;;;6214477;28;20109;-81
2021/11/23 07:13:40;;;;;;;14.15;6.65;;;1.50;91.50;;;;;;6213873;28;20389;-81
2021/11/23 07:16:42;;;;;;;9.75;5.68;;;1.60;91.40;;;;;;6214974;28;20074;-81
2021/11/23 07:19:44;;;;;;;5.13;2.25;;;1.60;91.30;;;;;;6205141;28;20078;-80
2021/11/23 07:22:46;;;;;;;12.23;4.10;;;1.60;91.10;;;;;;6215567;28;20050;-80
2021/11/23 07:25:49;;;;;;;8.35;4.30;;;1.60;91.20;;;;;;6218559;28;20054;-80
2021/11/23 07:28:51;;;;;;;7.15;4.32;;;1.60;91.00;;;;;;6218207;28;20586;-80
2021/11/23 07:31:53;;;;;;;10.18;5.53;;;1.60;91.30;;;;;;6217213;28;20050;-80
2021/11/23 07:34:54;;;;;;;6.05;3.00;;;1.70;91.40;;;;;;6216809;28;20081;-79
2021/11/23 07:37:56;;;;;;;7.05;3.72;;;1.80;91.00;;;;;;6219404;28;20487;-81
2021/11/23 07:40:59;;;;;;;9.15;4.72;;;1.80;91.10;;;;;;6220574;28;20122;-81
2021/11/23 07:44:03;;;;;;;9.68;5.93;;;1.80;90.80;;;;;;6219971;28;20106;-80
2021/11/23 07:47:05;;;;;;;12.50;5.25;;;1.90;91.00;;;;;;6212616;28;20057;-80
2021/11/23 07:50:08;;;;;;;9.38;5.20;;;2.00;90.70;;;;;;6213836;28;20046;-81
2021/11/23 07:53:10;;;;;;;13.70;4.72;;;2.10;90.60;;;;;;6219983;28;20133;-81
2021/11/23 07:56:14;;;;;;;5.55;3.20;;;2.10;90.30;;;;;;6218207;28;20077;-79
2021/11/23 07:59:16;;;;;;;7.60;4.63;;;2.20;90.20;;;;;;6217075;28;20042;-81
2021/11/23 08:02:17;;;;;;;12.80;5.50;;;2.30;90.20;;;;;;6219898;28;20070;-80
2021/11/23 08:05:19;;;;;;;8.13;4.47;;;2.40;89.80;;;;;;6225256;28;20050;-80
2021/11/23 08:08:22;;;;;;;8.95;4.88;;;2.60;89.50;;;;;;6219556;28;20050;-81
2021/11/23 08:11:25;;;;;;;15.38;3.70;;;2.80;89.00;;;;;;6224690;28;20062;-80
2021/11/23 08:14:27;;;;;;;8.85;3.95;;;3.00;88.30;;;;;;6223973;28;20078;-81
2021/11/23 08:17:30;;;;;;;8.00;4.38;;;3.20;87.00;;;;;;6214286;28;20119;-82
2021/11/23 08:20:32;;;;;;;9.10;5.35;;;3.40;86.50;;;;;;6218125;28;20476;-81
2021/11/23 08:23:34;;;;;;;7.53;4.78;;;3.50;86.10;;;;;;6220033;28;20070;-81
2021/11/23 08:26:38;;;;;;;8.23;4.20;;;3.60;85.10;;;;;;6220032;28;20085;-82
2021/11/23 08:29:40;;;;;;;6.43;3.88;;;3.70;85.20;;;;;;6219988;28;20081;-81
2021/11/23 08:32:42;;;;;;;15.82;4.57;;;3.90;84.50;;;;;;6220919;28;20062;-82
2021/11/23 08:35:44;;;;;;;7.15;3.67;;;4.10;83.30;;;;;;6221143;28;20047;-82
2021/11/23 08:38:46;;;;;;;8.50;4.43;;;4.30;82.70;;;;;;6220357;28;20170;-82
2021/11/23 08:41:49;;;;;;;6.68;3.58;;;4.30;82.00;;;;;;6219478;28;20416;-79
2021/11/23 08:44:53;;;;;;;6.22;4.03;;;4.50;81.80;;;;;;6214689;28;20129;-80
2021/11/23 08:47:55;;;;;;;6.50;3.95;;;4.90;81.40;;;;;;6215556;28;20130;-82
2021/11/23 08:50:57;;;;;;;7.18;4.53;;;5.20;80.20;;;;;;6190883;28;20145;-81
2021/11/23 08:53:58;;;;;;;6.70;3.88;;;5.50;79.70;;;;;;6191232;28;20050;-82
2021/11/23 08:57:04;;;;;;;9.02;5.28;;;5.80;80.60;;;;;;6191544;28;20051;-81
2021/11/23 09:00:17;;;;;;;5.65;3.45;;;6.20;79.40;;;;;;6189436;28;20054;-80
2021/11/23 09:03:19;;;;;;;7.15;4.93;;;6.40;76.50;;;;;;6188965;28;20046;-81
2021/11/23 09:06:24;;;;;;;7.53;5.07;;;6.50;75.20;;;;;;6190052;28;20047;-81
2021/11/23 09:09:27;;;;;;;8.60;3.28;;;6.60;73.90;;;;;;6205085;28;20142;-81
2021/11/23 09:12:30;;;;;;;7.60;3.55;;;6.50;74.00;;;;;;6213547;28;20067;-80
2021/11/23 09:15:33;;;;;;;6.65;3.53;;;6.40;74.10;;;;;;6213647;28;20057;-80
2021/11/23 09:18:35;;;;;;;9.35;4.30;;;6.30;73.20;;;;;;6198300;28;20125;-80
2021/11/23 09:21:36;;;;;;;7.45;4.30;;;6.40;73.30;;;;;;6189135;28;20078;-82
2021/11/23 09:24:38;;;;;;;7.20;4.15;;;6.40;73.40;;;;;;6190576;28;20067;-82
2021/11/23 09:27:42;;;;;;;6.75;3.72;;;6.60;74.60;;;;;;6194089;28;20050;-82
2021/11/23 09:30:44;;;;;;;6.85;3.47;;;6.90;73.60;;;;;;6194085;28;20051;-82
2021/11/23 09:33:46;;;;;;;4.47;3.08;;;7.20;71.10;;;;;;6193443;28;20054;-82
2021/11/23 09:36:47;;;;;;;13.05;6.80;;;7.20;70.50;;;;;;6192793;28;20078;-82
2021/11/23 09:39:49;;;;;;;13.57;6.65;;;7.40;70.20;;;;;;6192217;28;20074;-82
2021/11/23 09:42:54;;;;;;;14.93;10.73;;;7.60;69.60;;;;;;6190811;28;20039;-82
2021/11/23 09:45:56;;;;;;;5.57;3.67;;;7.70;68.70;;;;;;6198010;28;20436;-80
2021/11/23 09:48:58;;;;;;;7.10;4.10;;;7.70;68.30;;;;;;6206769;28;20496;-83
2021/11/23 09:51:59;;;;;;;8.23;3.95;;;7.80;68.90;;;;;;6212312;28;20133;-81
2021/11/23 09:55:02;;;;;;;6.63;4.15;;;8.10;67.90;;;;;;6210853;28;20097;-80
2021/11/23 09:58:06;;;;;;;5.38;3.65;;;8.30;68.40;;;;;;6214639;28;20565;-81
2021/11/23 10:01:09;;;;;;;5.25;3.45;;;8.60;66.20;;;;;;6211244;28;20060;-81
2021/11/23 10:04:11;;;;;;;6.72;3.80;;;8.70;65.60;;;;;;6212020;28;20117;-82
2021/11/23 10:07:13;;;;;;;7.30;3.88;;;8.70;65.70;;;;;;6210650;28;20121;-81
2021/11/23 10:10:18;;;;;;;5.57;3.60;;;8.70;65.00;;;;;;6206656;28;20054;-81
2021/11/23 10:13:24;;;;;;;5.95;3.10;;;8.90;64.50;;;;;;6207814;28;20473;-81
2021/11/23 10:16:39;;;;;;;5.50;3.65;;;8.90;64.30;;;;;;6207888;28;20435;-81
2021/11/23 10:19:40;;;;;;;9.25;3.00;;;9.20;64.30;;;;;;6198075;28;20062;-80
2021/11/23 10:22:42;;;;;;;5.65;3.80;;;9.10;63.20;;;;;;6204592;28;20050;-80
2021/11/23 10:25:46;;;;;;;7.50;4.60;;;9.00;64.60;;;;;;6202250;28;20161;-86
2021/11/23 10:28:53;;;;;;;6.50;4.80;;;9.20;64.30;;;;;;6179428;28;20117;-81
2021/11/23 10:31:55;;;;;;;4.70;3.17;;;9.20;63.50;;;;;;6193268;28;20057;-82
2021/11/23 10:34:57;;;;;;;7.47;4.20;;;9.40;63.90;;;;;;6204922;28;20412;-79
2021/11/23 10:38:00;;;;;;;5.85;4.25;;;9.80;64.30;;;;;;6205261;28;20073;-79
2021/11/23 10:41:07;;;;;;;5.13;3.22;;;10.30;62.10;;;;;;6207576;28;20056;-80
2021/11/23 10:44:17;;;;;;;7.10;3.47;;;10.50;60.90;;;;;;6207102;28;20046;-82
2021/11/23 10:47:20;;;;;;;5.40;3.55;;;10.70;62.20;;;;;;6199807;28;20451;-82
2021/11/23 10:50:22;;;;;;;8.18;3.15;;;11.00;60.70;;;;;;6187132;28;20069;-81
2021/11/23 10:53:24;;;;;;;6.53;2.78;;;11.20;59.20;;;;;;6191975;28;20056;-79
2021/11/23 10:56:26;;;;;;;7.90;3.90;;;11.00;58.90;;;;;;6203670;28;20425;-80
2021/11/23 10:59:30;;;;;;;4.80;3.53;;;11.10;59.60;;;;;;6202874;28;20129;-80
2021/11/23 11:02:33;;;;;;;7.28;2.80;;;11.50;59.30;;;;;;6205697;28;20564;-82
2021/11/23 11:05:37;;;;;;;4.05;2.72;;;11.90;62.10;;;;;;6206074;28;20050;-82
2021/11/23 11:08:43;;;;;;;7.95;3.53;;;12.50;58.00;;;;;;6212129;28;20133;-79
2021/11/23 11:11:45;;;;;;;6.20;2.97;;;12.60;59.00;;;;;;6208519;28;20125;-81
2021/11/23 11:14:51;;;;;;;5.47;3.67;;;12.90;56.30;;;;;;6197114;28;20193;-81
2021/11/23 11:17:53;;;;;;;5.90;3.22;;;12.70;54.90;;;;;;6205607;28;20050;-81
2021/11/23 11:20:58;;;;;;;3.55;2.33;;;12.50;54.60;;;;;;6188250;28;20111;-80
2021/11/23 11:24:26;;;;;;;6.15;3.08;;;12.20;55.80;;;;;;6186854;28;20054;-79
2021/11/23 11:27:48;;;;;;;6.95;3.30;;;11.90;55.80;;;;;;6181660;28;20142;-82
2021/11/23 11:30:52;;;;;;;4.78;3.00;;;11.90;56.50;;;;;;6180433;28;20134;-81
2021/11/23 11:34:25;;;;;;;9.63;2.97;;;12.10;55.80;;;;;;6186190;28;20062;-81
2021/11/23 11:37:35;;;;;;;6.22;3.08;;;12.00;57.30;;;;;;6185069;28;20061;-79
2021/11/23 11:40:41;;;;;;;2.25;1.92;;;12.00;56.00;;;;;;6187159;28;20054;-80
2021/11/23 11:43:44;;;;;;;5.70;2.80;;;11.90;56.20;;;;;;6187916;28;20118;-80
2021/11/23 11:47:00;;;;;;;9.73;4.40;;;11.90;56.80;;;;;;6194392;28;20492;-81
2021/11/23 11:50:08;;;;;;;3.63;1.88;;;11.90;55.40;;;;;;6205094;28;20487;-82
2021/11/23 11:53:14;;;;;;;2.83;2.13;;;11.80;54.80;;;;;;6210868;28;20050;-79
2021/11/23 11:56:38;;;;;;;5.43;2.78;;;11.80;54.60;;;;;;6210943;28;20145;-80
2021/11/23 11:59:41;;;;;;;4.70;2.33;;;11.50;54.70;;;;;;6208562;28;20515;-80
2021/11/23 12:02:44;;;;;;;3.97;2.28;;;11.40;57.30;;;;;;6209277;28;20505;-81
2021/11/23 12:05:56;;;;;;;4.82;2.17;;;11.90;55.80;;;;;;6209145;28;20078;-81
2021/11/23 12:09:25;;;;;;;6.72;2.42;;;12.30;53.20;;;;;;6207995;28;20058;-80
2021/11/23 12:12:48;;;;;;;3.17;2.45;;;11.90;52.40;;;;;;6201011;28;20050;-82
2021/11/23 12:16:05;;;;;;;5.93;2.28;;;12.00;54.00;;;;;;6187604;28;20057;-80
2021/11/23 12:19:25;;;;;;;5.53;1.88;;;12.10;53.10;;;;;;6195862;28;20054;-81
2021/11/23 12:22:27;;;;;;;3.45;1.90;;;12.10;52.10;;;;;;6205053;28;20155;-81
2021/11/23 12:25:29;;;;;;;2.63;2.00;;;12.10;51.80;;;;;;6205567;28;20456;-81
2021/11/23 12:28:32;;;;;;;3.55;2.08;;;12.00;51.20;;;;;;6205082;28;20133;-80
2021/11/23 12:31:36;;;;;;;2.50;1.27;;;12.00;52.70;;;;;;6209504;28;20668;-82
2021/11/23 12:34:50;;;;;;;2.13;1.75;;;12.20;50.30;;;;;;6206461;28;20133;-82
2021/11/23 12:37:53;;;;;;;4.05;2.70;;;11.70;50.50;;;;;;6198528;28;20489;-80
2021/11/23 12:40:57;;;;;;;5.32;2.50;;;11.70;51.70;;;;;;6179568;28;20679;-81
2021/11/23 12:43:59;;;;;;;3.13;1.83;;;11.50;52.20;;;;;;6180397;28;20385;-81
2021/11/23 12:47:04;;;;;;;7.88;2.40;;;11.30;51.60;;;;;;6193268;28;20056;-80
2021/11/23 12:50:07;;;;;;;2.25;1.48;;;11.40;53.50;;;;;;6199491;28;20152;-81
2021/11/23 12:53:12;;;;;;;3.05;1.88;;;11.70;52.40;;;;;;6203118;28;20050;-80
2021/11/23 12:56:13;;;;;;;4.18;1.70;;;11.80;51.90;;;;;;6211246;28;20062;-79
2021/11/23 12:59:29;;;;;;;2.20;1.27;;;12.00;51.00;;;;;;6214361;28;20046;-80
2021/11/23 13:02:36;;;;;;;3.30;2.17;;;12.20;51.70;;;;;;6215104;28;20108;-80
2021/11/23 13:05:40;;;;;;;3.90;2.50;;;12.30;49.90;;;;;;6211621;28;20042;-80
2021/11/23 13:08:56;;;;;;;3.75;2.25;;;11.90;50.10;;;;;;6209298;28;20148;-80
2021/11/23 13:11:57;;;;;;;5.65;2.05;;;11.50;51.40;;;;;;6208328;28;20133;-80
2021/11/23 13:15:02;;;;;;;4.05;1.73;;;11.50;53.00;;;;;;6189276;28;20182;-81
2021/11/23 13:18:06;;;;;;;7.07;2.88;;;11.40;51.90;;;;;;6193877;28;20058;-82
2021/11/23 13:21:10;;;;;;;3.80;2.28;;;11.30;52.90;;;;;;6183018;28;20134;-79
2021/11/23 13:24:13;;;;;;;4.28;2.00;;;11.40;53.80;;;;;;6181893;28;20082;-81
2021/11/23 13:27:25;;;;;;;4.22;2.42;;;11.70;54.30;;;;;;6175599;28;20184;-79
2021/11/23 13:30:48;;;;;;;7.55;2.38;;;11.70;51.90;;;;;;6191735;28;20081;-79
2021/11/23 13:33:54;;;;;;;5.90;1.75;;;11.40;52.20;;;;;;6184510;28;20398;-81
2021/11/23 13:36:57;;;;;;;2.30;1.73;;;11.30;53.00;;;;;;6185352;28;20161;-79
2021/11/23 13:40:18;;;;;;;3.63;1.77;;;11.30;53.00;;;;;;6183416;28;20141;-79
2021/11/23 13:43:20;;;;;;;2.08;1.48;;;11.30;52.00;;;;;;6185469;28;20145;-79
2021/11/23 13:46:22;;;;;;;4.07;1.90;;;10.90;52.70;;;;;;6189589;28;20157;-80
2021/11/23 13:49:26;;;;;;;3.25;1.48;;;10.60;52.60;;;;;;6200082;28;20046;-78
2021/11/23 13:52:34;;;;;;;3.58;1.67;;;10.40;54.40;;;;;;6209769;28;20106;-80
2021/11/23 13:55:38;;;;;;;1.98;1.63;;;10.40;53.40;;;;;;6208711;28;20097;-80
2021/11/23 13:58:50;;;;;;;2.75;1.48;;;10.30;53.30;;;;;;6207843;28;20054;-79
2021/11/23 14:01:58;;;;;;;3.67;1.15;;;10.10;53.60;;;;;;6208989;28;20136;-80
2021/11/23 14:04:59;;;;;;;5.88;1.50;;;10.00;54.20;;;;;;6209659;28;20054;-78
2021/11/23 14:08:04;;;;;;;3.90;1.75;;;10.10;54.60;;;;;;6208365;28;20046;-79
2021/11/23 14:11:08;;;;;;;2.45;1.00;;;10.20;54.40;;;;;;6209669;28;20132;-79
2021/11/23 14:14:10;;;;;;;1.67;0.73;;;10.30;54.20;;;;;;6206647;28;20050;-80
2021/11/23 14:17:12;;;;;;;2.67;1.70;;;10.30;53.20;;;;;;6199428;28;20117;-79
2021/11/23 14:20:14;;;;;;;5.40;1.58;;;10.20;53.00;;;;;;6206138;28;20043;-78
2021/11/23 14:23:19;;;;;;;1.83;1.15;;;10.10;53.70;;;;;;6209687;28;20153;-80
2021/11/23 14:26:24;;;;;;;2.30;1.45;;;10.00;53.60;;;;;;6210665;28;20057;-80
2021/11/23 14:29:27;;;;;;;3.60;2.03;;;10.00;54.20;;;;;;6210112;28;20065;-80
2021/11/23 14:32:29;;;;;;;4.20;1.42;;;10.00;55.10;;;;;;6209659;28;20419;-81
2021/11/23 14:35:31;;;;;;;4.88;1.83;;;10.10;53.70;;;;;;6207732;28;20101;-79
2021/11/23 14:38:35;;;;;;;1.42;1.25;;;10.10;53.20;;;;;;6207008;28;20553;-78
2021/11/23 14:41:37;;;;;;;4.57;1.80;;;10.00;53.20;;;;;;6207061;28;20571;-80
2021/11/23 14:44:39;;;;;;;3.65;1.17;;;9.90;53.90;;;;;;6206727;28;20129;-80
2021/11/23 14:47:41;;;;;;;2.83;1.00;;;9.90;52.70;;;;;;6197783;28;20047;-80
2021/11/23 14:50:43;;;;;;;3.47;0.80;;;9.80;53.60;;;;;;6206996;28;20535;-80
2021/11/23 14:53:46;;;;;;;2.80;1.38;;;9.70;53.10;;;;;;6209043;28;20153;-80
2021/11/23 14:56:48;;;;;;;2.13;1.00;;;9.40;54.10;;;;;;6190059;28;20139;-80
2021/11/23 14:59:50;;;;;;;6.18;2.35;;;9.30;53.90;;;;;;6183988;28;20050;-80
2021/11/23 15:02:52;;;;;;;2.65;1.08;;;8.90;54.50;;;;;;6183617;28;20074;-80
2021/11/23 15:05:54;;;;;;;3.97;1.58;;;8.80;55.50;;;;;;6184315;28;20134;-80
2021/11/23 15:08:57;;;;;;;3.30;1.45;;;8.50;55.60;;;;;;6182901;28;20055;-80
2021/11/23 15:11:59;;;;;;;2.38;1.45;;;8.40;56.70;;;;;;6184224;28;20106;-80
2021/11/23 15:15:01;;;;;;;3.25;1.40;;;8.10;57.50;;;;;;6193825;28;20486;-80
2021/11/23 15:18:03;;;;;;;2.08;1.00;;;8.00;58.00;;;;;;6199585;28;20052;-79
2021/11/23 15:21:05;;;;;;;2.35;1.27;;;7.80;58.40;;;;;;6183647;28;20125;-80
2021/11/23 15:24:09;;;;;;;5.32;1.67;;;7.70;59.40;;;;;;6185149;28;20050;-80
2021/11/23 15:27:11;;;;;;;2.42;1.40;;;7.70;60.00;;;;;;6185415;28;20145;-79
2021/11/23 15:30:13;;;;;;;2.78;1.27;;;7.60;60.40;;;;;;6184569;28;20137;-80
2021/11/23 15:33:15;;;;;;;2.88;1.17;;;7.50;61.10;;;;;;6185098;28;20066;-79
2021/11/23 15:36:17;;;;;;;2.20;1.23;;;7.40;61.60;;;;;;6199609;28;20715;-79
2021/11/23 15:39:20;;;;;;;4.30;2.33;;;7.40;62.00;;;;;;6203173;28;20066;-80
2021/11/23 15:42:22;;;;;;;6.70;1.75;;;7.40;62.60;;;;;;6192440;28;20059;-79
2021/11/23 15:45:24;;;;;;;3.33;1.20;;;7.20;62.70;;;;;;6183233;28;20106;-80
2021/11/23 15:48:26;;;;;;;3.38;1.48;;;7.10;63.10;;;;;;6196220;28;20050;-80
2021/11/23 15:51:28;;;;;;;8.93;1.73;;;7.00;63.60;;;;;;6207881;28;20121;-79
2021/11/23 15:54:31;;;;;;;1.98;1.30;;;6.80;64.10;;;;;;6206199;28;20566;-80
2021/11/23 15:57:33;;;;;;;6.80;2.03;;;6.70;64.60;;;;;;6207464;28;20147;-79
2021/11/23 16:00:34;;;;;;;7.32;2.30;;;6.70;65.00;;;;;;6206595;28;20099;-80
2021/11/23 16:03:36;;;;;;;9.27;3.13;;;6.70;65.40;;;;;;6188794;28;20065;-82